Time,TemperatureF,DewpointF,PressureIn,WindDirection,WindDirectionDegrees,WindSpeedMPH,WindSpeedGustMPH,Humidity,HourlyPrecipIn,Conditions,Clouds,dailyrainin,SoftwareType,DateUTC
2013-01-21 00:04:00,36.0,31.7,30.33,ENE,67,0.0,0.0,84,0.00,,,0.00,WUHU21623XXSP,2013-01-21 08:04:00,
2013-01-21 00:09:00,36.1,31.5,30.32,ENE,67,0.0,0.0,84,0.00,,,0.00,WUHU21623XXSP,2013-01-21 08:09:00,
2013-01-21 00:14:00,36.1,31.7,30.33,ENE,67,0.0,0.0,84,0.00,,,0.00,WUHU21623XXSP,2013-01-21 08:14:00,
2013-01-21 00:19:00,36.1,31.7,30.33,ENE,67,0.0,0.0,84,0.00,,,0.00,WUHU21623XXSP,2013-01-21 08:19:00,
2013-01-21 00:24:00,36.0,31.5,30.34,ENE,67,0.0,0.0,84,0.00,,,0.00,WUHU21623XXSP,2013-01-21 08:24:00,
2013-01-21 00:30:00,36.0,31.5,30.33,ENE,67,0.0,0.0,84,0.00,,,0.00,WUHU21623XXSP,2013-01-21 08:30:00,
2013-01-21 00:35:00,35.8,31.4,30.33,ENE,67,0.0,0.0,84,0.00,,,0.00,WUHU21623XXSP,2013-01-21 08:35:00,
2013-01-21 00:40:00,35.8,31.4,30.32,ENE,67,0.0,0.0,84,0.00,,,0.00,WUHU21623XXSP,2013-01-21 08:40:00,
2013-01-21 00:45:00,35.8,31.4,30.34,ENE,67,0.0,0.0,84,0.00,,,0.00,WUHU21623XXSP,2013-01-21 08:45:00,
2013-01-21 00:50:00,35.8,31.4,30.32,ENE,67,0.0,0.0,84,0.00,,,0.00,WUHU21623XXSP,2013-01-21 08:50:00,
2013-01-21 00:55:00,35.8,31.4,30.32,ENE,67,0.0,0.0,84,0.00,,,0.00,WUHU21623XXSP,2013-01-21 08:55:00,
2013-01-21 01:00:00,35.8,31.4,30.32,ENE,67,0.0,0.0,84,0.00,,,0.00,WUHU21623XXSP,2013-01-21 09:00:00,
2013-01-21 01:05:00,35.4,31.0,30.32,ENE,67,0.0,0.0,84,0.00,,,0.00,WUHU21623XXSP,2013-01-21 09:05:00,
2013-01-21 01:10:00,35.4,31.0,30.32,ENE,67,0.0,0.0,84,0.00,,,0.00,WUHU21623XXSP,2013-01-21 09:10:00,
2013-01-21 01:15:00,35.4,31.0,30.32,ENE,67,0.0,0.0,84,0.00,,,0.00,WUHU21623XXSP,2013-01-21 09:15:00,
2013-01-21 01:20:00,35.4,31.0,30.32,ENE,67,0.0,0.0,84,0.00,,,0.00,WUHU21623XXSP,2013-01-21 09:20:00,
2013-01-21 01:25:00,35.4,31.0,30.32,ENE,67,0.0,0.0,84,0.00,,,0.00,WUHU21623XXSP,2013-01-21 09:25:00,
2013-01-21 01:30:00,35.2,30.8,30.31,ENE,67,0.0,0.0,84,0.00,,,0.00,WUHU21623XXSP,2013-01-21 09:30:00,
2013-01-21 01:35:00,35.2,30.8,30.31,ENE,67,0.0,0.0,84,0.00,,,0.00,WUHU21623XXSP,2013-01-21 09:35:00,
2013-01-21 01:40:00,35.1,30.8,30.31,ENE,67,0.0,0.0,84,0.00,,,0.00,WUHU21623XXSP,2013-01-21 09:40:00,
2013-01-21 01:45:00,35.1,30.6,30.31,ENE,67,0.0,0.0,84,0.00,,,0.00,WUHU21623XXSP,2013-01-21 09:45:00,
2013-01-21 01:50:00,35.1,30.6,30.32,ENE,67,0.0,0.0,84,0.00,,,0.00,WUHU21623XXSP,2013-01-21 09:50:00,
2013-01-21 01:55:00,35.2,30.8,30.32,ENE,67,0.0,0.0,84,0.00,,,0.00,WUHU21623XXSP,2013-01-21 09:55:00,
2013-01-21 02:00:00,35.1,30.6,30.32,ENE,67,0.0,0.0,84,0.00,,,0.00,WUHU21623XXSP,2013-01-21 10:00:00,
2013-01-21 02:05:00,34.9,30.5,30.32,ENE,67,0.0,0.0,84,0.00,,,0.00,WUHU21623XXSP,2013-01-21 10:05:00,
2013-01-21 02:10:00,34.7,30.3,30.32,ENE,67,0.0,0.0,84,0.00,,,0.00,WUHU21623XXSP,2013-01-21 10:10:00,
2013-01-21 02:15:00,34.7,30.3,30.32,ENE,67,0.0,0.0,84,0.00,,,0.00,WUHU21623XXSP,2013-01-21 10:15:00,
2013-01-21 02:20:00,34.9,30.5,30.32,ENE,67,0.0,0.0,84,0.00,,,0.00,WUHU21623XXSP,2013-01-21 10:20:00,
2013-01-21 02:25:00,34.9,30.5,30.32,ENE,67,0.0,0.0,84,0.00,,,0.00,WUHU21623XXSP,2013-01-21 10:25:00,
2013-01-21 02:30:00,34.7,30.3,30.32,ENE,67,0.0,0.0,84,0.00,,,0.00,WUHU21623XXSP,2013-01-21 10:30:00,
2013-01-21 02:35:00,34.7,30.3,30.31,ENE,67,0.0,0.0,84,0.00,,,0.00,WUHU21623XXSP,2013-01-21 10:35:00,
2013-01-21 02:40:00,34.7,30.3,30.32,ENE,67,0.0,0.0,84,0.00,,,0.00,WUHU21623XXSP,2013-01-21 10:40:00,
2013-01-21 02:45:00,34.7,30.3,30.32,ENE,67,0.0,0.0,84,0.00,,,0.00,WUHU21623XXSP,2013-01-21 10:45:00,
2013-01-21 02:50:00,34.7,30.3,30.32,ENE,67,0.0,0.0,84,0.00,,,0.00,WUHU21623XXSP,2013-01-21 10:50:00,
2013-01-21 02:55:00,34.7,30.3,30.33,ENE,67,0.0,0.0,84,0.00,,,0.00,WUHU21623XXSP,2013-01-21 10:55:00,
2013-01-21 03:00:00,34.7,30.3,30.32,ENE,67,0.0,0.0,84,0.00,,,0.00,WUHU21623XXSP,2013-01-21 11:00:00,
2013-01-21 03:05:00,34.5,30.1,30.32,ENE,67,0.0,0.0,84,0.00,,,0.00,WUHU21623XXSP,2013-01-21 11:05:00,
2013-01-21 03:10:00,34.5,30.1,30.32,ENE,67,0.0,0.0,84,0.00,,,0.00,WUHU21623XXSP,2013-01-21 11:10:00,
2013-01-21 03:15:00,34.5,30.1,30.31,ENE,67,0.0,0.0,84,0.00,,,0.00,WUHU21623XXSP,2013-01-21 11:15:00,
2013-01-21 03:20:00,34.3,29.9,30.31,ENE,67,0.0,0.0,84,0.00,,,0.00,WUHU21623XXSP,2013-01-21 11:20:00,
2013-01-21 03:25:00,34.3,29.9,30.30,ENE,67,0.0,0.0,84,0.00,,,0.00,WUHU21623XXSP,2013-01-21 11:25:00,
2013-01-21 03:30:00,34.3,29.9,30.31,ENE,67,0.0,0.0,84,0.00,,,0.00,WUHU21623XXSP,2013-01-21 11:30:00,
2013-01-21 03:35:00,34.3,29.9,30.31,ENE,67,0.0,0.0,84,0.00,,,0.00,WUHU21623XXSP,2013-01-21 11:35:00,
2013-01-21 03:40:00,34.3,29.9,30.31,ENE,67,0.0,0.0,84,0.00,,,0.00,WUHU21623XXSP,2013-01-21 11:40:00,
2013-01-21 03:45:00,34.3,29.9,30.31,ENE,67,0.0,0.0,84,0.00,,,0.00,WUHU21623XXSP,2013-01-21 11:45:00,
2013-01-21 03:50:00,34.3,29.9,30.31,ENE,67,0.0,0.0,84,0.00,,,0.00,WUHU21623XXSP,2013-01-21 11:50:00,
2013-01-21 03:55:00,34.3,29.9,30.30,ENE,67,0.0,0.0,84,0.00,,,0.00,WUHU21623XXSP,2013-01-21 11:55:00,
2013-01-21 04:00:00,34.3,29.9,30.30,ENE,67,0.0,0.0,84,0.00,,,0.00,WUHU21623XXSP,2013-01-21 12:00:00,
2013-01-21 04:05:00,34.3,29.9,30.30,ENE,67,0.0,0.0,84,0.00,,,0.00,WUHU21623XXSP,2013-01-21 12:05:00,
2013-01-21 04:10:00,34.3,29.9,30.30,ENE,67,0.0,0.0,84,0.00,,,0.00,WUHU21623XXSP,2013-01-21 12:10:00,
2013-01-21 04:15:00,34.3,29.9,30.29,ENE,67,0.0,0.0,84,0.00,,,0.00,WUHU21623XXSP,2013-01-21 12:15:00,
2013-01-21 04:20:00,34.3,29.9,30.28,North,0,0.0,0.0,84,0.00,,,0.00,WUHU21623XXSP,2013-01-21 12:20:00,
2013-01-21 04:25:00,34.3,29.9,30.28,North,0,0.0,0.0,84,0.00,,,0.00,WUHU21623XXSP,2013-01-21 12:25:00,
2013-01-21 04:30:00,34.3,29.9,30.28,NNE,22,0.0,0.0,84,0.00,,,0.00,WUHU21623XXSP,2013-01-21 12:30:00,
2013-01-21 04:35:00,34.3,29.9,30.27,NNE,22,0.0,0.0,84,0.00,,,0.00,WUHU21623XXSP,2013-01-21 12:35:00,
2013-01-21 04:40:00,34.5,30.1,30.27,NNE,22,0.0,0.0,84,0.00,,,0.00,WUHU21623XXSP,2013-01-21 12:40:00,
2013-01-21 04:45:00,34.5,30.1,30.27,NNW,337,0.0,0.0,84,0.00,,,0.00,WUHU21623XXSP,2013-01-21 12:45:00,
2013-01-21 04:50:00,34.5,30.1,30.27,NNW,337,0.0,0.0,84,0.00,,,0.00,WUHU21623XXSP,2013-01-21 12:50:00,
2013-01-21 04:55:00,34.5,29.8,30.27,NNW,337,0.0,0.0,83,0.00,,,0.00,WUHU21623XXSP,2013-01-21 12:55:00,
2013-01-21 05:00:00,34.5,29.8,30.27,NNE,22,0.0,0.0,83,0.00,,,0.00,WUHU21623XXSP,2013-01-21 13:00:00,
2013-01-21 05:05:00,34.5,29.8,30.26,NNE,22,0.0,0.0,83,0.00,,,0.00,WUHU21623XXSP,2013-01-21 13:05:00,
2013-01-21 05:11:00,34.5,29.8,30.25,North,0,0.0,0.0,83,0.00,,,0.00,WUHU21623XXSP,2013-01-21 13:11:00,
2013-01-21 05:16:00,34.3,29.6,30.25,North,0,0.0,0.0,83,0.00,,,0.00,WUHU21623XXSP,2013-01-21 13:16:00,
2013-01-21 05:21:00,34.3,29.6,30.25,North,0,0.0,0.0,83,0.00,,,0.00,WUHU21623XXSP,2013-01-21 13:21:00,
2013-01-21 05:26:00,34.3,29.6,30.25,North,0,0.0,0.0,83,0.00,,,0.00,WUHU21623XXSP,2013-01-21 13:26:00,
2013-01-21 05:31:00,34.3,29.6,30.25,North,0,0.0,0.0,83,0.00,,,0.00,WUHU21623XXSP,2013-01-21 13:31:00,
2013-01-21 05:36:00,34.5,29.8,30.25,NE,45,0.0,0.0,83,0.00,,,0.00,WUHU21623XXSP,2013-01-21 13:36:00,
2013-01-21 05:41:00,34.5,29.8,30.25,NE,45,0.0,0.0,83,0.00,,,0.00,WUHU21623XXSP,2013-01-21 13:41:00,
2013-01-21 05:46:00,34.5,29.8,30.25,NE,45,0.0,0.0,83,0.00,,,0.00,WUHU21623XXSP,2013-01-21 13:46:00,
2013-01-21 05:51:00,34.5,29.8,30.25,NE,45,0.0,0.0,83,0.00,,,0.00,WUHU21623XXSP,2013-01-21 13:51:00,
2013-01-21 05:56:00,34.5,29.8,30.25,NE,45,0.0,0.0,83,0.00,,,0.00,WUHU21623XXSP,2013-01-21 13:56:00,
2013-01-21 06:01:00,34.3,29.6,30.25,NE,45,0.0,0.0,83,0.00,,,0.00,WUHU21623XXSP,2013-01-21 14:01:00,
2013-01-21 06:06:00,34.3,29.6,30.25,NE,45,0.0,0.0,83,0.00,,,0.00,WUHU21623XXSP,2013-01-21 14:06:00,
2013-01-21 06:11:00,34.3,29.6,30.25,NE,45,0.0,0.0,83,0.00,,,0.00,WUHU21623XXSP,2013-01-21 14:11:00,
2013-01-21 06:16:00,34.2,29.4,30.25,NE,45,0.0,0.0,83,0.00,,,0.00,WUHU21623XXSP,2013-01-21 14:16:00,
2013-01-21 06:21:00,34.2,29.4,30.24,NE,45,0.0,0.0,83,0.00,,,0.00,WUHU21623XXSP,2013-01-21 14:21:00,
2013-01-21 06:26:00,34.2,29.4,30.24,NE,45,0.0,0.0,83,0.00,,,0.00,WUHU21623XXSP,2013-01-21 14:26:00,
2013-01-21 06:31:00,34.0,29.3,30.25,ENE,67,0.0,0.0,83,0.00,,,0.00,WUHU21623XXSP,2013-01-21 14:31:00,
2013-01-21 06:36:00,34.0,29.3,30.25,ENE,67,0.0,0.0,83,0.00,,,0.00,WUHU21623XXSP,2013-01-21 14:36:00,
2013-01-21 06:41:00,34.0,29.3,30.25,ENE,67,0.0,0.0,83,0.00,,,0.00,WUHU21623XXSP,2013-01-21 14:41:00,
2013-01-21 06:46:00,34.0,29.3,30.25,ENE,67,0.0,0.0,83,0.00,,,0.00,WUHU21623XXSP,2013-01-21 14:46:00,
2013-01-21 06:51:00,33.8,29.1,30.25,ENE,67,0.0,0.0,83,0.00,,,0.00,WUHU21623XXSP,2013-01-21 14:51:00,
2013-01-21 06:56:00,33.8,29.1,30.25,ENE,67,0.0,0.0,83,0.00,,,0.00,WUHU21623XXSP,2013-01-21 14:56:00,
2013-01-21 07:01:00,33.6,28.9,30.25,ENE,67,0.0,0.0,83,0.00,,,0.00,WUHU21623XXSP,2013-01-21 15:01:00,
2013-01-21 07:06:00,33.6,28.9,30.26,ENE,67,0.0,0.0,83,0.00,,,0.00,WUHU21623XXSP,2013-01-21 15:06:00,
2013-01-21 07:11:00,33.6,28.9,30.25,ENE,67,0.0,0.0,83,0.00,,,0.00,WUHU21623XXSP,2013-01-21 15:11:00,
2013-01-21 07:16:00,33.8,29.1,30.26,ENE,67,0.0,0.0,83,0.00,,,0.00,WUHU21623XXSP,2013-01-21 15:16:00,
2013-01-21 07:21:00,33.6,28.9,30.26,ENE,67,0.0,0.0,83,0.00,,,0.00,WUHU21623XXSP,2013-01-21 15:21:00,
2013-01-21 07:26:00,33.6,28.9,30.26,ENE,67,0.0,0.0,83,0.00,,,0.00,WUHU21623XXSP,2013-01-21 15:26:00,
2013-01-21 07:31:00,33.8,29.1,30.26,ENE,67,0.0,0.0,83,0.00,,,0.00,WUHU21623XXSP,2013-01-21 15:31:00,
2013-01-21 07:36:00,33.6,28.9,30.26,ENE,67,0.0,0.0,83,0.00,,,0.00,WUHU21623XXSP,2013-01-21 15:36:00,
2013-01-21 07:41:00,33.8,29.4,30.26,ENE,67,0.0,0.0,84,0.00,,,0.00,WUHU21623XXSP,2013-01-21 15:41:00,
2013-01-21 07:46:00,33.8,29.4,30.26,ENE,67,0.0,0.0,84,0.00,,,0.00,WUHU21623XXSP,2013-01-21 15:46:00,
2013-01-21 07:51:00,33.8,29.4,30.26,ENE,67,0.0,0.0,84,0.00,,,0.00,WUHU21623XXSP,2013-01-21 15:51:00,
2013-01-21 07:56:00,33.8,29.4,30.26,ENE,67,0.0,0.0,84,0.00,,,0.00,WUHU21623XXSP,2013-01-21 15:56:00,
2013-01-21 08:01:00,33.6,29.2,30.26,ENE,67,0.0,0.0,84,0.00,,,0.00,WUHU21623XXSP,2013-01-21 16:01:00,
2013-01-21 08:06:00,33.8,29.2,30.26,ENE,67,0.0,0.0,84,0.00,,,0.00,WUHU21623XXSP,2013-01-21 16:06:00,
2013-01-21 08:11:00,33.8,29.4,30.26,ENE,67,0.0,0.0,84,0.00,,,0.00,WUHU21623XXSP,2013-01-21 16:11:00,
2013-01-21 08:16:00,33.8,29.4,30.27,ENE,67,0.0,0.0,84,0.00,,,0.00,WUHU21623XXSP,2013-01-21 16:16:00,
2013-01-21 08:21:00,34.0,29.6,30.27,ENE,67,0.0,0.0,84,0.00,,,0.00,WUHU21623XXSP,2013-01-21 16:21:00,
2013-01-21 08:26:00,34.0,29.6,30.27,ENE,67,0.0,0.0,84,0.00,,,0.00,WUHU21623XXSP,2013-01-21 16:26:00,
2013-01-21 08:31:00,34.0,29.6,30.27,ENE,67,0.0,0.0,84,0.00,,,0.00,WUHU21623XXSP,2013-01-21 16:31:00,
2013-01-21 08:36:00,34.0,29.6,30.27,ENE,67,0.0,0.0,84,0.00,,,0.00,WUHU21623XXSP,2013-01-21 16:36:00,
2013-01-21 08:42:00,34.0,29.6,30.27,ENE,67,0.0,0.0,84,0.00,,,0.00,WUHU21623XXSP,2013-01-21 16:42:00,
2013-01-21 08:46:00,34.2,29.7,30.27,ENE,67,0.0,0.0,84,0.00,,,0.00,WUHU21623XXSP,2013-01-21 16:46:00,
2013-01-21 08:52:00,34.3,29.9,30.27,ENE,67,0.0,0.0,84,0.00,,,0.00,WUHU21623XXSP,2013-01-21 16:52:00,
2013-01-21 08:57:00,34.7,30.1,30.27,ENE,67,0.0,0.0,84,0.00,,,0.00,WUHU21623XXSP,2013-01-21 16:57:00,
2013-01-21 09:02:00,34.9,30.5,30.27,ENE,67,0.0,0.0,84,0.00,,,0.00,WUHU21623XXSP,2013-01-21 17:02:00,
2013-01-21 09:07:00,35.1,30.6,30.27,ENE,67,0.0,0.0,84,0.00,,,0.00,WUHU21623XXSP,2013-01-21 17:07:00,
2013-01-21 09:12:00,35.4,30.7,30.27,ENE,67,0.0,0.0,83,0.00,,,0.00,WUHU21623XXSP,2013-01-21 17:12:00,
2013-01-21 09:17:00,35.4,30.7,30.27,ENE,67,0.0,0.0,83,0.00,,,0.00,WUHU21623XXSP,2013-01-21 17:17:00,
2013-01-21 09:22:00,35.8,31.1,30.27,ENE,67,0.0,0.0,83,0.00,,,0.00,WUHU21623XXSP,2013-01-21 17:22:00,
2013-01-21 09:27:00,35.8,31.1,30.27,ENE,67,0.0,0.0,83,0.00,,,0.00,WUHU21623XXSP,2013-01-21 17:27:00,
2013-01-21 09:32:00,36.0,31.2,30.27,ENE,67,0.0,0.0,83,0.00,,,0.00,WUHU21623XXSP,2013-01-21 17:32:00,
2013-01-21 09:37:00,36.3,31.9,30.27,ENE,67,0.0,0.0,84,0.02,,,0.02,WUHU21623XXSP,2013-01-21 17:37:00,
2013-01-21 09:42:00,36.5,31.8,30.27,ENE,67,0.0,0.0,83,0.02,,,0.02,WUHU21623XXSP,2013-01-21 17:42:00,
2013-01-21 09:47:00,36.7,32.0,30.27,ENE,67,0.0,0.0,83,0.02,,,0.02,WUHU21623XXSP,2013-01-21 17:47:00,
2013-01-21 09:52:00,37.0,32.3,30.28,ENE,67,0.0,0.0,83,0.02,,,0.02,WUHU21623XXSP,2013-01-21 17:52:00,
2013-01-21 09:57:00,37.2,32.5,30.27,ENE,67,0.0,0.0,83,0.02,,,0.02,WUHU21623XXSP,2013-01-21 17:57:00,
2013-01-21 10:02:00,37.6,32.9,30.28,ENE,67,0.0,0.0,83,0.02,,,0.02,WUHU21623XXSP,2013-01-21 18:02:00,
2013-01-21 10:07:00,37.6,32.9,30.28,ENE,67,0.0,0.0,83,0.02,,,0.02,WUHU21623XXSP,2013-01-21 18:07:00,
2013-01-21 10:12:00,37.9,33.2,30.29,ENE,67,0.0,0.0,83,0.02,,,0.02,WUHU21623XXSP,2013-01-21 18:12:00,
2013-01-21 10:17:00,38.1,33.4,30.28,ENE,67,0.0,0.0,83,0.02,,,0.02,WUHU21623XXSP,2013-01-21 18:17:00,
2013-01-21 10:22:00,38.3,33.6,30.28,ENE,67,0.0,0.0,83,0.02,,,0.02,WUHU21623XXSP,2013-01-21 18:22:00,
2013-01-21 10:27:00,38.8,34.1,30.28,ENE,67,0.0,0.0,83,0.02,,,0.02,WUHU21623XXSP,2013-01-21 18:27:00,
2013-01-21 10:32:00,39.0,34.1,30.28,ENE,67,0.0,0.0,84,0.00,,,0.02,WUHU21623XXSP,2013-01-21 18:32:00,
2013-01-21 10:37:00,39.0,34.3,30.28,ENE,67,0.0,0.0,83,0.00,,,0.02,WUHU21623XXSP,2013-01-21 18:37:00,
2013-01-21 10:42:00,39.6,34.8,30.27,ENE,67,0.0,0.0,83,0.00,,,0.02,WUHU21623XXSP,2013-01-21 18:42:00,
2013-01-21 10:47:00,39.7,35.0,30.27,ENE,67,0.0,0.0,83,0.00,,,0.02,WUHU21623XXSP,2013-01-21 18:47:00,
2013-01-21 10:52:00,40.1,35.3,30.28,ENE,67,0.0,0.0,83,0.00,,,0.02,WUHU21623XXSP,2013-01-21 18:52:00,
2013-01-21 10:57:00,40.6,35.8,30.28,ENE,67,0.0,0.0,83,0.00,,,0.02,WUHU21623XXSP,2013-01-21 18:57:00,
2013-01-21 11:02:00,40.8,36.0,30.28,ENE,67,0.0,0.0,83,0.00,,,0.02,WUHU21623XXSP,2013-01-21 19:02:00,
2013-01-21 11:07:00,41.4,36.5,30.28,ENE,67,0.0,0.0,83,0.00,,,0.02,WUHU21623XXSP,2013-01-21 19:07:00,
2013-01-21 11:12:00,41.5,36.4,30.28,ENE,67,0.0,0.0,82,0.00,,,0.02,WUHU21623XXSP,2013-01-21 19:12:00,
2013-01-21 11:17:00,41.7,36.6,30.28,ENE,67,0.0,0.0,82,0.00,,,0.02,WUHU21623XXSP,2013-01-21 19:17:00,
2013-01-21 11:22:00,42.4,36.9,30.28,ENE,67,0.0,0.0,82,0.00,,,0.02,WUHU21623XXSP,2013-01-21 19:22:00,
2013-01-21 11:27:00,42.6,37.2,30.28,ENE,67,0.0,0.0,81,0.00,,,0.02,WUHU21623XXSP,2013-01-21 19:27:00,
2013-01-21 11:32:00,43.0,37.5,30.27,ENE,67,0.0,0.0,81,0.00,,,0.02,WUHU21623XXSP,2013-01-21 19:32:00,
2013-01-21 11:37:00,43.3,37.9,30.28,ENE,67,0.0,0.0,81,0.00,,,0.02,WUHU21623XXSP,2013-01-21 19:37:00,
2013-01-21 11:42:00,43.5,38.1,30.28,South,180,0.0,0.0,81,0.00,,,0.02,WUHU21623XXSP,2013-01-21 19:42:00,
2013-01-21 11:47:00,43.9,38.4,30.28,South,180,0.0,0.0,81,0.00,,,0.02,WUHU21623XXSP,2013-01-21 19:47:00,
2013-01-21 11:52:00,44.4,39.0,30.27,SSW,202,0.0,0.0,81,0.00,,,0.02,WUHU21623XXSP,2013-01-21 19:52:00,
2013-01-21 11:57:00,44.8,39.3,30.27,South,180,0.0,0.0,81,0.00,,,0.02,WUHU21623XXSP,2013-01-21 19:57:00,
2013-01-21 12:02:00,45.0,39.5,30.27,WSW,247,0.0,0.0,81,0.00,,,0.02,WUHU21623XXSP,2013-01-21 20:02:00,
2013-01-21 12:07:00,45.3,39.6,30.27,SW,225,0.0,0.0,79,0.00,,,0.02,WUHU21623XXSP,2013-01-21 20:07:00,
2013-01-21 12:12:00,45.7,39.6,30.27,South,180,0.0,0.0,79,0.00,,,0.02,WUHU21623XXSP,2013-01-21 20:12:00,
2013-01-21 12:17:00,45.7,39.2,30.27,South,180,0.0,0.0,78,0.00,,,0.02,WUHU21623XXSP,2013-01-21 20:17:00,
2013-01-21 12:23:00,46.0,39.6,30.26,South,180,0.0,0.0,78,0.00,,,0.02,WUHU21623XXSP,2013-01-21 20:23:00,
2013-01-21 12:28:00,46.0,39.6,30.25,South,180,0.0,0.0,78,0.00,,,0.02,WUHU21623XXSP,2013-01-21 20:28:00,
2013-01-21 12:33:00,46.2,39.8,30.25,South,180,0.0,0.0,78,0.00,,,0.02,WUHU21623XXSP,2013-01-21 20:33:00,
2013-01-21 12:38:00,46.8,40.1,30.25,South,180,0.0,0.0,78,0.00,,,0.02,WUHU21623XXSP,2013-01-21 20:38:00,
2013-01-21 12:43:00,46.9,40.1,30.25,South,180,0.0,0.0,77,0.00,,,0.02,WUHU21623XXSP,2013-01-21 20:43:00,
2013-01-21 12:48:00,47.1,39.9,30.25,South,180,0.0,0.0,76,0.00,,,0.02,WUHU21623XXSP,2013-01-21 20:48:00,
2013-01-21 12:53:00,47.7,40.4,30.24,SW,225,0.0,0.0,76,0.00,,,0.02,WUHU21623XXSP,2013-01-21 20:53:00,
2013-01-21 12:58:00,47.8,40.6,30.25,SW,225,0.0,0.0,75,0.00,,,0.02,WUHU21623XXSP,2013-01-21 20:58:00,
2013-01-21 13:03:00,48.0,40.4,30.24,SW,225,0.0,0.0,75,0.00,,,0.02,WUHU21623XXSP,2013-01-21 21:03:00,
2013-01-21 13:08:00,48.4,40.7,30.24,WSW,247,0.0,0.0,75,0.00,,,0.02,WUHU21623XXSP,2013-01-21 21:08:00,
2013-01-21 13:13:00,48.6,40.9,30.24,SW,225,0.0,0.0,75,0.00,,,0.02,WUHU21623XXSP,2013-01-21 21:13:00,
2013-01-21 13:18:00,48.7,41.1,30.24,SW,225,0.0,1.3,75,0.00,,,0.02,WUHU21623XXSP,2013-01-21 21:18:00,
2013-01-21 13:23:00,48.7,41.1,30.25,SW,225,0.0,1.3,75,0.00,,,0.02,WUHU21623XXSP,2013-01-21 21:23:00,
2013-01-21 13:28:00,48.7,41.1,30.25,WSW,247,0.0,0.0,75,0.00,,,0.02,WUHU21623XXSP,2013-01-21 21:28:00,
2013-01-21 13:33:00,48.7,41.4,30.25,WSW,247,0.0,0.0,76,0.00,,,0.02,WUHU21623XXSP,2013-01-21 21:33:00,
2013-01-21 13:38:00,48.7,41.4,30.24,SSW,202,0.0,0.0,76,0.00,,,0.02,WUHU21623XXSP,2013-01-21 21:38:00,
2013-01-21 13:43:00,48.9,41.4,30.25,SW,225,0.0,0.0,76,0.00,,,0.02,WUHU21623XXSP,2013-01-21 21:43:00,
2013-01-21 13:48:00,48.7,41.4,30.24,WSW,247,0.0,0.0,76,0.00,,,0.02,WUHU21623XXSP,2013-01-21 21:48:00,
2013-01-21 13:53:00,48.7,41.4,30.24,WSW,247,0.0,0.0,76,0.00,,,0.02,WUHU21623XXSP,2013-01-21 21:53:00,
2013-01-21 13:58:00,48.7,41.4,30.24,WSW,247,0.0,0.0,76,0.00,,,0.02,WUHU21623XXSP,2013-01-21 21:58:00,
2013-01-21 14:03:00,48.9,42.0,30.24,South,180,0.0,0.0,77,0.00,,,0.02,WUHU21623XXSP,2013-01-21 22:03:00,
2013-01-21 14:08:00,48.9,42.0,30.24,South,180,0.0,0.0,77,0.00,,,0.02,WUHU21623XXSP,2013-01-21 22:08:00,
2013-01-21 14:13:00,48.9,42.0,30.23,South,180,0.0,0.0,77,0.00,,,0.02,WUHU21623XXSP,2013-01-21 22:13:00,
2013-01-21 14:18:00,48.9,41.6,30.24,NW,315,0.0,0.0,76,0.00,,,0.02,WUHU21623XXSP,2013-01-21 22:18:00,
2013-01-21 14:23:00,48.9,41.6,30.23,NW,315,0.0,0.0,76,0.00,,,0.02,WUHU21623XXSP,2013-01-21 22:23:00,
2013-01-21 14:28:00,48.9,42.0,30.23,NW,315,0.0,0.0,77,0.00,,,0.02,WUHU21623XXSP,2013-01-21 22:28:00,
2013-01-21 14:33:00,48.7,41.8,30.23,NW,315,0.0,0.0,77,0.00,,,0.02,WUHU21623XXSP,2013-01-21 22:33:00,
2013-01-21 14:38:00,48.7,41.8,30.23,NNW,337,0.0,0.0,77,0.00,,,0.02,WUHU21623XXSP,2013-01-21 22:38:00,
2013-01-21 14:43:00,48.7,41.8,30.23,NNW,337,0.0,0.0,77,0.00,,,0.02,WUHU21623XXSP,2013-01-21 22:43:00,
2013-01-21 14:48:00,48.7,41.8,30.23,NNW,337,0.0,0.0,77,0.00,,,0.02,WUHU21623XXSP,2013-01-21 22:48:00,
2013-01-21 14:53:00,48.7,41.8,30.22,NNW,337,0.0,0.0,77,0.00,,,0.02,WUHU21623XXSP,2013-01-21 22:53:00,
2013-01-21 14:58:00,48.7,41.6,30.22,NNW,337,0.0,0.0,77,0.00,,,0.02,WUHU21623XXSP,2013-01-21 22:58:00,
2013-01-21 15:03:00,48.6,41.6,30.23,NNW,337,0.0,0.0,77,0.00,,,0.02,WUHU21623XXSP,2013-01-21 23:03:00,
2013-01-21 15:08:00,48.6,41.9,30.22,NNW,337,0.0,0.0,78,0.00,,,0.02,WUHU21623XXSP,2013-01-21 23:08:00,
2013-01-21 15:13:00,48.6,41.9,30.22,NNW,337,0.0,0.0,78,0.00,,,0.02,WUHU21623XXSP,2013-01-21 23:13:00,
2013-01-21 15:18:00,48.6,41.9,30.22,NNW,337,0.0,0.0,78,0.00,,,0.02,WUHU21623XXSP,2013-01-21 23:18:00,
2013-01-21 15:23:00,48.6,41.9,30.23,NNW,337,0.0,0.0,78,0.00,,,0.02,WUHU21623XXSP,2013-01-21 23:23:00,
2013-01-21 15:28:00,48.7,42.1,30.22,NNW,337,0.0,0.0,78,0.00,,,0.02,WUHU21623XXSP,2013-01-21 23:28:00,
2013-01-21 15:33:00,48.7,41.8,30.22,NW,315,0.0,0.0,77,0.00,,,0.02,WUHU21623XXSP,2013-01-21 23:33:00,
2013-01-21 15:38:00,48.9,42.0,30.22,NW,315,0.0,0.0,77,0.00,,,0.02,WUHU21623XXSP,2013-01-21 23:38:00,
2013-01-21 15:43:00,49.1,42.0,30.23,NW,315,0.0,0.0,77,0.00,,,0.02,WUHU21623XXSP,2013-01-21 23:43:00,
2013-01-21 15:48:00,49.3,42.0,30.23,West,270,0.0,0.0,76,0.00,,,0.02,WUHU21623XXSP,2013-01-21 23:48:00,
2013-01-21 15:53:00,49.3,42.0,30.23,WSW,247,0.0,0.0,76,0.00,,,0.02,WUHU21623XXSP,2013-01-21 23:53:00,
2013-01-21 15:58:00,49.3,42.0,30.23,WSW,247,0.0,0.0,76,0.00,,,0.02,WUHU21623XXSP,2013-01-21 23:58:00,
2013-01-21 16:03:00,48.9,41.3,30.23,West,270,0.0,0.0,75,0.00,,,0.02,WUHU21623XXSP,2013-01-22 00:03:00,
2013-01-21 16:08:00,48.7,41.1,30.23,West,270,0.0,0.0,75,0.00,,,0.02,WUHU21623XXSP,2013-01-22 00:08:00,
2013-01-21 16:13:00,48.6,40.9,30.23,West,270,0.0,0.0,75,0.00,,,0.02,WUHU21623XXSP,2013-01-22 00:13:00,
2013-01-21 16:18:00,48.4,40.7,30.23,West,270,0.0,0.0,75,0.00,,,0.02,WUHU21623XXSP,2013-01-22 00:18:00,
2013-01-21 16:23:00,48.4,40.7,30.23,West,270,0.0,0.0,75,0.00,,,0.02,WUHU21623XXSP,2013-01-22 00:23:00,
2013-01-21 16:28:00,48.0,40.7,30.23,West,270,0.0,0.0,76,0.00,,,0.02,WUHU21623XXSP,2013-01-22 00:28:00,
2013-01-21 16:33:00,48.0,40.7,30.23,West,270,0.0,0.0,76,0.00,,,0.02,WUHU21623XXSP,2013-01-22 00:33:00,
2013-01-21 16:38:00,47.8,40.6,30.24,West,270,0.0,0.0,76,0.00,,,0.02,WUHU21623XXSP,2013-01-22 00:38:00,
2013-01-21 16:43:00,47.5,40.6,30.23,West,270,0.0,0.0,77,0.00,,,0.02,WUHU21623XXSP,2013-01-22 00:43:00,
2013-01-21 16:48:00,47.1,39.9,30.23,West,270,0.0,0.0,76,0.00,,,0.02,WUHU21623XXSP,2013-01-22 00:48:00,
2013-01-21 16:53:00,46.8,39.9,30.23,West,270,0.0,0.0,77,0.00,,,0.02,WUHU21623XXSP,2013-01-22 00:53:00,
2013-01-21 16:58:00,46.2,39.4,30.23,West,270,0.0,0.0,77,0.00,,,0.02,WUHU21623XXSP,2013-01-22 00:58:00,
2013-01-21 17:03:00,46.0,39.6,30.23,West,270,0.0,0.0,78,0.00,,,0.02,WUHU21623XXSP,2013-01-22 01:03:00,
2013-01-21 17:08:00,45.7,39.2,30.23,West,270,0.0,0.0,78,0.00,,,0.02,WUHU21623XXSP,2013-01-22 01:08:00,
2013-01-21 17:14:00,45.1,38.7,30.23,West,270,0.0,0.0,78,0.00,,,0.02,WUHU21623XXSP,2013-01-22 01:14:00,
2013-01-21 17:19:00,45.0,38.5,30.23,West,270,0.0,0.0,78,0.00,,,0.02,WUHU21623XXSP,2013-01-22 01:19:00,
2013-01-21 17:24:00,44.4,38.3,30.23,West,270,0.0,0.0,79,0.00,,,0.02,WUHU21623XXSP,2013-01-22 01:24:00,
2013-01-21 17:29:00,44.2,38.1,30.24,West,270,0.0,0.0,79,0.00,,,0.02,WUHU21623XXSP,2013-01-22 01:29:00,
2013-01-21 17:34:00,43.9,37.8,30.24,West,270,0.0,0.0,79,0.00,,,0.02,WUHU21623XXSP,2013-01-22 01:34:00,
2013-01-21 17:39:00,43.5,37.4,30.24,West,270,0.0,0.0,79,0.00,,,0.02,WUHU21623XXSP,2013-01-22 01:39:00,
2013-01-21 17:44:00,43.0,37.2,30.24,West,270,0.0,0.0,80,0.00,,,0.02,WUHU21623XXSP,2013-01-22 01:44:00,
2013-01-21 17:49:00,42.6,36.9,30.24,West,270,0.0,0.0,80,0.00,,,0.02,WUHU21623XXSP,2013-01-22 01:49:00,
2013-01-21 17:54:00,42.4,36.7,30.24,West,270,0.0,0.0,80,0.00,,,0.02,WUHU21623XXSP,2013-01-22 01:54:00,
2013-01-21 17:59:00,42.1,36.6,30.24,West,270,0.0,0.0,81,0.00,,,0.02,WUHU21623XXSP,2013-01-22 01:59:00,
2013-01-21 18:04:00,41.9,36.4,30.23,West,270,0.0,0.0,81,0.00,,,0.02,WUHU21623XXSP,2013-01-22 02:04:00,
2013-01-21 18:09:00,41.5,36.1,30.22,West,270,0.0,0.0,81,0.00,,,0.02,WUHU21623XXSP,2013-01-22 02:09:00,
2013-01-21 18:14:00,41.4,35.9,30.23,West,270,0.0,0.0,81,0.00,,,0.02,WUHU21623XXSP,2013-01-22 02:14:00,
2013-01-21 18:19:00,41.2,36.0,30.22,SSW,202,0.0,0.0,82,0.00,,,0.02,WUHU21623XXSP,2013-01-22 02:19:00,
2013-01-21 18:24:00,41.2,36.0,30.22,SSW,202,0.0,0.0,82,0.00,,,0.02,WUHU21623XXSP,2013-01-22 02:24:00,
2013-01-21 18:29:00,41.0,35.9,30.22,SSW,202,0.0,0.0,82,0.00,,,0.02,WUHU21623XXSP,2013-01-22 02:29:00,
2013-01-21 18:34:00,41.0,35.9,30.22,SSW,202,0.0,0.0,82,0.00,,,0.02,WUHU21623XXSP,2013-01-22 02:34:00,
2013-01-21 18:39:00,40.8,36.0,30.22,SSW,202,0.0,0.0,83,0.00,,,0.02,WUHU21623XXSP,2013-01-22 02:39:00,
2013-01-21 18:44:00,40.8,36.0,30.22,SSW,202,0.0,0.0,83,0.00,,,0.02,WUHU21623XXSP,2013-01-22 02:44:00,
2013-01-21 18:49:00,40.8,36.0,30.22,SSW,202,0.0,0.0,83,0.00,,,0.02,WUHU21623XXSP,2013-01-22 02:49:00,
2013-01-21 18:54:00,40.6,35.8,30.21,South,180,0.0,0.0,83,0.00,,,0.02,WUHU21623XXSP,2013-01-22 02:54:00,
2013-01-21 18:59:00,40.5,35.7,30.21,South,180,0.0,0.0,83,0.00,,,0.02,WUHU21623XXSP,2013-01-22 02:59:00,
2013-01-21 19:04:00,40.3,35.5,30.21,South,180,0.0,0.0,83,0.00,,,0.02,WUHU21623XXSP,2013-01-22 03:04:00,
2013-01-21 19:09:00,40.3,35.5,30.21,South,180,0.0,0.0,83,0.00,,,0.02,WUHU21623XXSP,2013-01-22 03:09:00,
2013-01-21 19:14:00,40.3,35.5,30.20,ENE,67,0.0,0.0,83,0.00,,,0.02,WUHU21623XXSP,2013-01-22 03:14:00,
2013-01-21 19:19:00,40.5,35.7,30.20,ENE,67,0.0,0.0,83,0.00,,,0.02,WUHU21623XXSP,2013-01-22 03:19:00,
2013-01-21 19:24:00,40.8,35.8,30.20,ENE,67,0.0,0.0,83,0.00,,,0.02,WUHU21623XXSP,2013-01-22 03:24:00,
2013-01-21 19:29:00,41.0,36.0,30.21,ENE,67,0.0,0.0,83,0.00,,,0.02,WUHU21623XXSP,2013-01-22 03:29:00,
2013-01-21 19:34:00,41.4,36.2,30.21,ENE,67,0.0,0.0,82,0.00,,,0.02,WUHU21623XXSP,2013-01-22 03:34:00,
2013-01-21 19:39:00,41.4,36.2,30.21,ENE,67,0.0,0.0,82,0.00,,,0.02,WUHU21623XXSP,2013-01-22 03:39:00,
2013-01-21 19:44:00,41.7,36.1,30.22,ENE,67,0.0,0.0,81,0.00,,,0.02,WUHU21623XXSP,2013-01-22 03:44:00,
2013-01-21 19:49:00,41.7,36.3,30.22,ENE,67,0.0,0.0,81,0.00,,,0.02,WUHU21623XXSP,2013-01-22 03:49:00,
2013-01-21 19:54:00,41.7,36.3,30.21,ENE,67,0.0,0.0,81,0.00,,,0.02,WUHU21623XXSP,2013-01-22 03:54:00,
2013-01-21 19:59:00,41.7,36.4,30.22,ENE,67,0.0,0.0,81,0.00,,,0.02,WUHU21623XXSP,2013-01-22 03:59:00,
2013-01-21 20:04:00,41.7,36.0,30.21,ENE,67,0.0,0.0,80,0.00,,,0.02,WUHU21623XXSP,2013-01-22 04:04:00,
2013-01-21 20:09:00,41.7,36.0,30.21,ENE,67,0.0,0.0,80,0.00,,,0.02,WUHU21623XXSP,2013-01-22 04:09:00,
2013-01-21 20:14:00,41.5,35.5,30.21,ENE,67,0.0,0.0,79,0.00,,,0.02,WUHU21623XXSP,2013-01-22 04:14:00,
2013-01-21 20:19:00,41.5,35.5,30.22,ENE,67,0.0,0.0,79,0.00,,,0.02,WUHU21623XXSP,2013-01-22 04:19:00,
2013-01-21 20:24:00,41.5,35.5,30.22,ENE,67,0.0,0.0,79,0.00,,,0.02,WUHU21623XXSP,2013-01-22 04:24:00,
2013-01-21 20:29:00,41.4,35.5,30.22,ENE,67,0.0,0.0,78,0.00,,,0.02,WUHU21623XXSP,2013-01-22 04:29:00,
2013-01-21 20:34:00,41.4,35.0,30.21,ENE,67,0.0,0.0,78,0.00,,,0.02,WUHU21623XXSP,2013-01-22 04:34:00,
2013-01-21 20:39:00,41.4,35.0,30.22,ENE,67,0.0,0.0,78,0.00,,,0.02,WUHU21623XXSP,2013-01-22 04:39:00,
2013-01-21 20:44:00,41.4,34.6,30.21,ENE,67,0.0,0.0,77,0.00,,,0.02,WUHU21623XXSP,2013-01-22 04:44:00,
2013-01-21 20:49:00,41.2,34.8,30.21,ENE,67,0.0,0.0,78,0.00,,,0.02,WUHU21623XXSP,2013-01-22 04:49:00,
2013-01-21 20:54:00,41.2,34.8,30.21,ENE,67,0.0,0.0,78,0.00,,,0.02,WUHU21623XXSP,2013-01-22 04:54:00,
2013-01-21 20:59:00,41.2,34.8,30.21,ENE,67,0.0,0.0,78,0.00,,,0.02,WUHU21623XXSP,2013-01-22 04:59:00,
2013-01-21 21:00:00,41.2,34.8,30.21,ENE,67,0.0,0.0,78,0.00,,,0.02,WUHU21623XXSP,2013-01-22 05:00:00,
2013-01-21 21:01:00,41.2,34.4,30.21,ENE,67,0.0,0.0,77,0.00,,,0.02,WUHU21623XXSP,2013-01-22 05:01:00,
2013-01-21 21:06:00,41.4,34.6,30.21,ENE,67,0.0,0.0,77,0.00,,,0.02,WUHU21623XXSP,2013-01-22 05:06:00,
2013-01-21 21:11:00,41.4,34.6,30.21,NE,45,0.0,0.0,77,0.00,,,0.02,WUHU21623XXSP,2013-01-22 05:11:00,
2013-01-21 21:16:00,41.4,34.6,30.21,NE,45,0.0,0.0,77,0.00,,,0.02,WUHU21623XXSP,2013-01-22 05:16:00,
2013-01-21 21:21:00,41.4,34.6,30.21,NE,45,0.0,0.0,77,0.00,,,0.02,WUHU21623XXSP,2013-01-22 05:21:00,
2013-01-21 21:26:00,41.4,34.6,30.21,NE,45,0.0,0.0,77,0.00,,,0.02,WUHU21623XXSP,2013-01-22 05:26:00,
2013-01-21 21:31:00,41.4,34.6,30.21,NE,45,0.0,0.0,77,0.00,,,0.02,WUHU21623XXSP,2013-01-22 05:31:00,
2013-01-21 21:36:00,41.4,34.6,30.20,NE,45,0.0,0.0,77,0.00,,,0.02,WUHU21623XXSP,2013-01-22 05:36:00,
2013-01-21 21:41:00,41.5,34.8,30.21,NE,45,0.0,0.0,77,0.00,,,0.02,WUHU21623XXSP,2013-01-22 05:41:00,
2013-01-21 21:46:00,41.7,35.0,30.21,NE,45,0.0,0.0,77,0.00,,,0.02,WUHU21623XXSP,2013-01-22 05:46:00,
2013-01-21 21:51:00,41.7,35.0,30.20,NE,45,0.0,0.0,77,0.00,,,0.02,WUHU21623XXSP,2013-01-22 05:51:00,
2013-01-21 21:56:00,41.7,35.0,30.20,NE,45,0.0,0.0,77,0.00,,,0.02,WUHU21623XXSP,2013-01-22 05:56:00,
2013-01-21 22:01:00,41.5,34.8,30.21,NE,45,0.0,0.0,77,0.00,,,0.02,WUHU21623XXSP,2013-01-22 06:01:00,
2013-01-21 22:06:00,41.5,34.8,30.21,NE,45,0.0,0.0,77,0.00,,,0.02,WUHU21623XXSP,2013-01-22 06:06:00,
2013-01-21 22:11:00,41.4,34.3,30.19,NE,45,0.0,0.0,76,0.00,,,0.02,WUHU21623XXSP,2013-01-22 06:11:00,
2013-01-21 22:16:00,41.2,34.1,30.20,NNE,22,0.0,0.0,76,0.00,,,0.02,WUHU21623XXSP,2013-01-22 06:16:00,
2013-01-21 22:21:00,40.8,33.8,30.19,NE,45,0.0,0.0,76,0.00,,,0.02,WUHU21623XXSP,2013-01-22 06:21:00,
2013-01-21 22:26:00,40.8,33.8,30.19,NNE,22,0.0,0.0,76,0.00,,,0.02,WUHU21623XXSP,2013-01-22 06:26:00,
2013-01-21 22:31:00,40.8,33.8,30.19,NNE,22,0.0,0.0,76,0.00,,,0.02,WUHU21623XXSP,2013-01-22 06:31:00,
2013-01-21 22:36:00,40.8,33.8,30.19,NNE,22,0.0,0.0,76,0.00,,,0.02,WUHU21623XXSP,2013-01-22 06:36:00,
2013-01-21 22:41:00,40.8,33.8,30.19,NNE,22,0.0,0.0,76,0.00,,,0.02,WUHU21623XXSP,2013-01-22 06:41:00,
2013-01-21 22:46:00,40.8,33.8,30.19,NNE,22,0.0,0.0,76,0.00,,,0.02,WUHU21623XXSP,2013-01-22 06:46:00,
2013-01-21 22:51:00,40.8,33.8,30.19,NNE,22,0.0,0.0,76,0.00,,,0.02,WUHU21623XXSP,2013-01-22 06:51:00,
2013-01-21 22:56:00,40.8,33.4,30.19,NNE,22,0.0,0.0,75,0.00,,,0.02,WUHU21623XXSP,2013-01-22 06:56:00,
2013-01-21 23:01:00,40.8,33.4,30.18,NNE,22,0.0,0.0,75,0.00,,,0.02,WUHU21623XXSP,2013-01-22 07:01:00,
2013-01-21 23:07:00,40.8,33.4,30.18,NNE,22,0.0,0.0,75,0.00,,,0.02,WUHU21623XXSP,2013-01-22 07:07:00,
2013-01-21 23:12:00,41.2,33.8,30.18,NNE,22,0.0,0.0,75,0.00,,,0.02,WUHU21623XXSP,2013-01-22 07:12:00,
2013-01-21 23:17:00,41.2,33.8,30.17,NNE,22,0.0,0.0,75,0.00,,,0.02,WUHU21623XXSP,2013-01-22 07:17:00,
2013-01-21 23:22:00,41.2,33.5,30.18,NNE,22,0.0,0.0,74,0.00,,,0.02,WUHU21623XXSP,2013-01-22 07:22:00,
2013-01-21 23:27:00,41.2,33.5,30.18,North,0,0.0,0.0,74,0.00,,,0.02,WUHU21623XXSP,2013-01-22 07:27:00,
2013-01-21 23:32:00,41.4,33.2,30.18,North,0,0.0,0.0,73,0.00,,,0.02,WUHU21623XXSP,2013-01-22 07:32:00,
2013-01-21 23:37:00,41.2,33.2,30.19,NNW,337,0.0,0.0,73,0.00,,,0.02,WUHU21623XXSP,2013-01-22 07:37:00,
2013-01-21 23:42:00,41.2,33.2,30.20,NNE,22,0.0,0.0,73,0.00,,,0.02,WUHU21623XXSP,2013-01-22 07:42:00,
2013-01-21 23:47:00,41.2,33.2,30.19,North,0,0.0,0.0,73,0.00,,,0.02,WUHU21623XXSP,2013-01-22 07:47:00,
2013-01-21 23:52:00,40.8,32.8,30.19,North,0,0.0,0.0,73,0.00,,,0.02,WUHU21623XXSP,2013-01-22 07:52:00,
2013-01-21 23:57:00,40.8,32.8,30.20,NNE,22,0.0,0.0,73,0.00,,,0.02,WUHU21623XXSP,2013-01-22 07:57:00,